sensor_id;sensor_type;location;lat;lon;timestamp;P1;durP1;ratioP1;P2;durP2;ratioP2
8708;SDS011;4391;48.678;9.280;2023-04-03T00:02:12;4.97;;;1.98;;
8708;SDS011;4391;48.678;9.280;2023-04-03T00:04:38;5.67;;;2.40;;
8708;SDS011;4391;48.678;9.280;2023-04-03T00:07:06;5.82;;;2.60;;
8708;SDS011;4391;48.678;9.280;2023-04-03T00:09:32;5.45;;;2.10;;
8708;SDS011;4391;48.678;9.280;2023-04-03T00:11:59;5.72;;;2.15;;
8708;SDS011;4391;48.678;9.280;2023-04-03T00:14:26;5.13;;;1.90;;
8708;SDS011;4391;48.678;9.280;2023-04-03T00:16:53;7.77;;;2.70;;
8708;SDS011;4391;48.678;9.280;2023-04-03T00:19:21;6.32;;;2.17;;
8708;SDS011;4391;48.678;9.280;2023-04-03T00:21:48;5.05;;;2.50;;
8708;SDS011;4391;48.678;9.280;2023-04-03T00:24:15;6.13;;;1.92;;
8708;SDS011;4391;48.678;9.280;2023-04-03T00:26:42;6.10;;;2.80;;
8708;SDS011;4391;48.678;9.280;2023-04-03T00:29:09;5.80;;;2.33;;
8708;SDS011;4391;48.678;9.280;2023-04-03T00:31:35;4.35;;;2.05;;
8708;SDS011;4391;48.678;9.280;2023-04-03T00:34:02;7.75;;;2.20;;
8708;SDS011;4391;48.678;9.280;2023-04-03T00:36:30;6.47;;;2.47;;
8708;SDS011;4391;48.678;9.280;2023-04-03T00:38:57;6.95;;;2.50;;
8708;SDS011;4391;48.678;9.280;2023-04-03T00:43:59;7.32;;;2.00;;
8708;SDS011;4391;48.678;9.280;2023-04-03T00:46:26;10.68;;;2.25;;
8708;SDS011;4391;48.678;9.280;2023-04-03T00:48:53;5.30;;;2.17;;
8708;SDS011;4391;48.678;9.280;2023-04-03T00:51:20;4.55;;;2.00;;
8708;SDS011;4391;48.678;9.280;2023-04-03T00:53:52;7.00;;;2.33;;
8708;SDS011;4391;48.678;9.280;2023-04-03T00:56:24;4.72;;;2.08;;
8708;SDS011;4391;48.678;9.280;2023-04-03T00:58:53;5.65;;;1.77;;
8708;SDS011;4391;48.678;9.280;2023-04-03T01:01:26;5.20;;;2.08;;
8708;SDS011;4391;48.678;9.280;2023-04-03T01:03:54;4.65;;;1.85;;
8708;SDS011;4391;48.678;9.280;2023-04-03T01:06:23;6.47;;;2.27;;
8708;SDS011;4391;48.678;9.280;2023-04-03T01:08:53;6.65;;;2.03;;
8708;SDS011;4391;48.678;9.280;2023-04-03T01:11:21;7.30;;;2.30;;
8708;SDS011;4391;48.678;9.280;2023-04-03T01:13:48;5.18;;;2.17;;
8708;SDS011;4391;48.678;9.280;2023-04-03T01:16:15;5.68;;;1.88;;
8708;SDS011;4391;48.678;9.280;2023-04-03T01:18:42;6.73;;;2.43;;
8708;SDS011;4391;48.678;9.280;2023-04-03T01:24:14;7.03;;;2.22;;
8708;SDS011;4391;48.678;9.280;2023-04-03T01:26:50;4.88;;;1.98;;
8708;SDS011;4391;48.678;9.280;2023-04-03T01:29:16;5.30;;;1.67;;
8708;SDS011;4391;48.678;9.280;2023-04-03T01:31:49;4.77;;;1.80;;
8708;SDS011;4391;48.678;9.280;2023-04-03T01:34:18;8.27;;;2.35;;
8708;SDS011;4391;48.678;9.280;2023-04-03T01:36:45;5.18;;;2.50;;
8708;SDS011;4391;48.678;9.280;2023-04-03T01:39:11;6.28;;;2.00;;
8708;SDS011;4391;48.678;9.280;2023-04-03T01:41:39;7.68;;;2.03;;
8708;SDS011;4391;48.678;9.280;2023-04-03T01:44:06;5.93;;;2.30;;
8708;SDS011;4391;48.678;9.280;2023-04-03T01:46:32;6.25;;;2.13;;
8708;SDS011;4391;48.678;9.280;2023-04-03T01:49:01;5.43;;;2.50;;
8708;SDS011;4391;48.678;9.280;2023-04-03T01:51:28;5.30;;;2.08;;
8708;SDS011;4391;48.678;9.280;2023-04-03T01:53:55;6.68;;;2.80;;
8708;SDS011;4391;48.678;9.280;2023-04-03T01:56:22;5.83;;;2.33;;
8708;SDS011;4391;48.678;9.280;2023-04-03T01:58:50;8.43;;;2.67;;
8708;SDS011;4391;48.678;9.280;2023-04-03T02:01:17;5.97;;;2.25;;
8708;SDS011;4391;48.678;9.280;2023-04-03T02:03:43;6.45;;;2.30;;
8708;SDS011;4391;48.678;9.280;2023-04-03T02:06:12;6.45;;;2.20;;
8708;SDS011;4391;48.678;9.280;2023-04-03T02:08:38;6.80;;;2.37;;
8708;SDS011;4391;48.678;9.280;2023-04-03T02:11:06;6.63;;;2.60;;
8708;SDS011;4391;48.678;9.280;2023-04-03T02:13:33;6.82;;;2.28;;
8708;SDS011;4391;48.678;9.280;2023-04-03T02:16:05;9.18;;;2.25;;
8708;SDS011;4391;48.678;9.280;2023-04-03T02:18:33;5.97;;;2.42;;
8708;SDS011;4391;48.678;9.280;2023-04-03T02:21:00;5.07;;;2.30;;
8708;SDS011;4391;48.678;9.280;2023-04-03T02:23:28;6.53;;;2.60;;
8708;SDS011;4391;48.678;9.280;2023-04-03T02:26:02;5.97;;;2.40;;
8708;SDS011;4391;48.678;9.280;2023-04-03T02:28:30;5.55;;;2.13;;
8708;SDS011;4391;48.678;9.280;2023-04-03T02:30:57;7.00;;;2.22;;
8708;SDS011;4391;48.678;9.280;2023-04-03T02:33:24;6.30;;;2.20;;
8708;SDS011;4391;48.678;9.280;2023-04-03T02:35:52;5.10;;;2.00;;
8708;SDS011;4391;48.678;9.280;2023-04-03T02:38:20;7.35;;;2.17;;
8708;SDS011;4391;48.678;9.280;2023-04-03T02:40:48;6.20;;;2.10;;
8708;SDS011;4391;48.678;9.280;2023-04-03T02:43:16;5.05;;;2.13;;
8708;SDS011;4391;48.678;9.280;2023-04-03T02:45:43;4.50;;;2.20;;
8708;SDS011;4391;48.678;9.280;2023-04-03T02:48:09;6.70;;;2.72;;
8708;SDS011;4391;48.678;9.280;2023-04-03T02:50:37;4.80;;;1.92;;
8708;SDS011;4391;48.678;9.280;2023-04-03T02:53:03;5.32;;;2.28;;
8708;SDS011;4391;48.678;9.280;2023-04-03T02:55:30;7.28;;;2.10;;
8708;SDS011;4391;48.678;9.280;2023-04-03T02:57:58;4.53;;;1.80;;
8708;SDS011;4391;48.678;9.280;2023-04-03T03:00:25;5.30;;;1.63;;
8708;SDS011;4391;48.678;9.280;2023-04-03T03:02:52;5.72;;;2.25;;
8708;SDS011;4391;48.678;9.280;2023-04-03T03:05:19;5.85;;;2.22;;
8708;SDS011;4391;48.678;9.280;2023-04-03T03:07:45;7.30;;;2.60;;
8708;SDS011;4391;48.678;9.280;2023-04-03T03:10:12;4.67;;;2.23;;
8708;SDS011;4391;48.678;9.280;2023-04-03T03:12:39;4.22;;;2.05;;
8708;SDS011;4391;48.678;9.280;2023-04-03T03:15:08;6.55;;;2.20;;
8708;SDS011;4391;48.678;9.280;2023-04-03T03:17:36;4.80;;;2.13;;
8708;SDS011;4391;48.678;9.280;2023-04-03T03:20:02;4.68;;;1.92;;
8708;SDS011;4391;48.678;9.280;2023-04-03T03:22:30;4.80;;;2.03;;
8708;SDS011;4391;48.678;9.280;2023-04-03T03:24:57;4.13;;;2.03;;
8708;SDS011;4391;48.678;9.280;2023-04-03T03:27:24;5.35;;;1.75;;
8708;SDS011;4391;48.678;9.280;2023-04-03T03:29:50;4.78;;;1.95;;
8708;SDS011;4391;48.678;9.280;2023-04-03T03:32:18;6.47;;;1.67;;
8708;SDS011;4391;48.678;9.280;2023-04-03T03:34:45;4.37;;;2.20;;
8708;SDS011;4391;48.678;9.280;2023-04-03T03:37:12;4.75;;;2.00;;
8708;SDS011;4391;48.678;9.280;2023-04-03T03:39:39;4.82;;;1.92;;
8708;SDS011;4391;48.678;9.280;2023-04-03T03:42:06;5.28;;;1.83;;
8708;SDS011;4391;48.678;9.280;2023-04-03T03:44:33;5.75;;;2.40;;
8708;SDS011;4391;48.678;9.280;2023-04-03T03:46:59;5.57;;;2.13;;
8708;SDS011;4391;48.678;9.280;2023-04-03T03:49:27;5.70;;;1.70;;
8708;SDS011;4391;48.678;9.280;2023-04-03T03:51:54;11.60;;;2.28;;
8708;SDS011;4391;48.678;9.280;2023-04-03T03:54:21;5.32;;;2.10;;
8708;SDS011;4391;48.678;9.280;2023-04-03T03:56:48;5.10;;;1.80;;
8708;SDS011;4391;48.678;9.280;2023-04-03T03:59:15;5.33;;;2.07;;
8708;SDS011;4391;48.678;9.280;2023-04-03T04:01:42;5.25;;;1.80;;
8708;SDS011;4391;48.678;9.280;2023-04-03T04:04:09;5.47;;;1.83;;
8708;SDS011;4391;48.678;9.280;2023-04-03T04:06:37;5.00;;;2.13;;
8708;SDS011;4391;48.678;9.280;2023-04-03T04:09:04;4.45;;;2.30;;
8708;SDS011;4391;48.678;9.280;2023-04-03T04:11:31;6.40;;;2.00;;
8708;SDS011;4391;48.678;9.280;2023-04-03T04:13:58;4.43;;;2.20;;
8708;SDS011;4391;48.678;9.280;2023-04-03T04:16:25;4.40;;;1.95;;
8708;SDS011;4391;48.678;9.280;2023-04-03T04:18:51;5.63;;;2.13;;
8708;SDS011;4391;48.678;9.280;2023-04-03T04:21:18;5.80;;;2.15;;
8708;SDS011;4391;48.678;9.280;2023-04-03T04:23:46;4.93;;;2.00;;
8708;SDS011;4391;48.678;9.280;2023-04-03T04:26:13;4.85;;;2.38;;
8708;SDS011;4391;48.678;9.280;2023-04-03T04:28:40;6.88;;;2.17;;
8708;SDS011;4391;48.678;9.280;2023-04-03T04:31:07;7.05;;;2.20;;
8708;SDS011;4391;48.678;9.280;2023-04-03T04:33:33;6.80;;;2.10;;
8708;SDS011;4391;48.678;9.280;2023-04-03T04:36:00;5.80;;;2.10;;
8708;SDS011;4391;48.678;9.280;2023-04-03T04:38:27;6.18;;;1.80;;
8708;SDS011;4391;48.678;9.280;2023-04-03T04:40:55;5.30;;;1.80;;
8708;SDS011;4391;48.678;9.280;2023-04-03T04:43:22;4.40;;;1.90;;
8708;SDS011;4391;48.678;9.280;2023-04-03T04:45:59;5.43;;;1.80;;
8708;SDS011;4391;48.678;9.280;2023-04-03T04:48:26;6.20;;;2.00;;
8708;SDS011;4391;48.678;9.280;2023-04-03T04:50:53;4.93;;;2.17;;
8708;SDS011;4391;48.678;9.280;2023-04-03T04:53:20;4.78;;;1.70;;
8708;SDS011;4391;48.678;9.280;2023-04-03T04:55:47;5.78;;;2.30;;
8708;SDS011;4391;48.678;9.280;2023-04-03T04:58:15;8.13;;;2.15;;
8708;SDS011;4391;48.678;9.280;2023-04-03T05:00:42;4.83;;;2.03;;
8708;SDS011;4391;48.678;9.280;2023-04-03T05:03:08;6.00;;;1.70;;
8708;SDS011;4391;48.678;9.280;2023-04-03T05:05:35;5.57;;;2.00;;
8708;SDS011;4391;48.678;9.280;2023-04-03T05:08:02;4.70;;;1.63;;
8708;SDS011;4391;48.678;9.280;2023-04-03T05:10:30;5.68;;;1.95;;
8708;SDS011;4391;48.678;9.280;2023-04-03T05:12:57;5.90;;;1.70;;
8708;SDS011;4391;48.678;9.280;2023-04-03T05:15:25;5.70;;;1.85;;
8708;SDS011;4391;48.678;9.280;2023-04-03T05:17:52;4.25;;;1.70;;
8708;SDS011;4391;48.678;9.280;2023-04-03T05:20:19;4.18;;;1.80;;
8708;SDS011;4391;48.678;9.280;2023-04-03T05:22:46;5.30;;;1.75;;
8708;SDS011;4391;48.678;9.280;2023-04-03T05:25:12;4.30;;;1.90;;
8708;SDS011;4391;48.678;9.280;2023-04-03T05:27:39;4.45;;;1.65;;
8708;SDS011;4391;48.678;9.280;2023-04-03T05:30:06;4.18;;;1.85;;
8708;SDS011;4391;48.678;9.280;2023-04-03T05:32:35;5.97;;;1.75;;
8708;SDS011;4391;48.678;9.280;2023-04-03T05:35:02;4.70;;;1.65;;
8708;SDS011;4391;48.678;9.280;2023-04-03T05:37:30;6.03;;;1.93;;
8708;SDS011;4391;48.678;9.280;2023-04-03T05:39:57;4.97;;;2.08;;
8708;SDS011;4391;48.678;9.280;2023-04-03T05:42:24;5.15;;;2.05;;
8708;SDS011;4391;48.678;9.280;2023-04-03T05:44:51;4.82;;;1.92;;
8708;SDS011;4391;48.678;9.280;2023-04-03T05:47:18;5.45;;;1.75;;
8708;SDS011;4391;48.678;9.280;2023-04-03T05:49:46;4.17;;;1.70;;
8708;SDS011;4391;48.678;9.280;2023-04-03T05:52:18;5.25;;;2.10;;
8708;SDS011;4391;48.678;9.280;2023-04-03T05:54:47;6.55;;;1.95;;
8708;SDS011;4391;48.678;9.280;2023-04-03T05:57:14;4.05;;;1.67;;
8708;SDS011;4391;48.678;9.280;2023-04-03T05:59:41;5.78;;;2.10;;
8708;SDS011;4391;48.678;9.280;2023-04-03T06:02:09;4.37;;;1.70;;
8708;SDS011;4391;48.678;9.280;2023-04-03T06:04:37;4.93;;;1.92;;
8708;SDS011;4391;48.678;9.280;2023-04-03T06:07:05;4.13;;;1.70;;
8708;SDS011;4391;48.678;9.280;2023-04-03T06:09:33;7.28;;;1.75;;
8708;SDS011;4391;48.678;9.280;2023-04-03T06:12:00;6.45;;;1.60;;
8708;SDS011;4391;48.678;9.280;2023-04-03T06:14:27;4.27;;;1.80;;
8708;SDS011;4391;48.678;9.280;2023-04-03T06:16:54;4.53;;;1.83;;
8708;SDS011;4391;48.678;9.280;2023-04-03T06:19:21;4.47;;;1.52;;
8708;SDS011;4391;48.678;9.280;2023-04-03T06:21:48;5.20;;;1.58;;
8708;SDS011;4391;48.678;9.280;2023-04-03T06:24:17;5.43;;;1.75;;
8708;SDS011;4391;48.678;9.280;2023-04-03T06:26:45;4.40;;;1.83;;
8708;SDS011;4391;48.678;9.280;2023-04-03T06:29:11;3.95;;;1.88;;
8708;SDS011;4391;48.678;9.280;2023-04-03T06:31:39;6.35;;;1.77;;
8708;SDS011;4391;48.678;9.280;2023-04-03T06:34:06;4.47;;;1.95;;
8708;SDS011;4391;48.678;9.280;2023-04-03T06:36:33;5.13;;;1.77;;
8708;SDS011;4391;48.678;9.280;2023-04-03T06:39:00;3.50;;;1.60;;
8708;SDS011;4391;48.678;9.280;2023-04-03T06:41:29;4.07;;;1.80;;
8708;SDS011;4391;48.678;9.280;2023-04-03T06:43:56;4.40;;;2.15;;
8708;SDS011;4391;48.678;9.280;2023-04-03T06:46:24;4.53;;;1.95;;
8708;SDS011;4391;48.678;9.280;2023-04-03T06:48:52;9.05;;;2.20;;
8708;SDS011;4391;48.678;9.280;2023-04-03T06:51:20;4.57;;;1.90;;
8708;SDS011;4391;48.678;9.280;2023-04-03T06:53:49;5.47;;;1.80;;
8708;SDS011;4391;48.678;9.280;2023-04-03T06:56:17;4.70;;;1.80;;
8708;SDS011;4391;48.678;9.280;2023-04-03T06:58:46;4.80;;;1.85;;
8708;SDS011;4391;48.678;9.280;2023-04-03T07:01:14;5.05;;;1.70;;
8708;SDS011;4391;48.678;9.280;2023-04-03T07:03:42;4.37;;;1.40;;
8708;SDS011;4391;48.678;9.280;2023-04-03T07:06:10;5.10;;;1.60;;
8708;SDS011;4391;48.678;9.280;2023-04-03T07:08:38;5.63;;;1.90;;
8708;SDS011;4391;48.678;9.280;2023-04-03T07:11:07;3.58;;;1.40;;
8708;SDS011;4391;48.678;9.280;2023-04-03T07:13:35;4.28;;;1.70;;
8708;SDS011;4391;48.678;9.280;2023-04-03T07:16:03;4.03;;;1.50;;
8708;SDS011;4391;48.678;9.280;2023-04-03T07:18:31;5.43;;;1.60;;
8708;SDS011;4391;48.678;9.280;2023-04-03T07:20:58;5.85;;;1.27;;
8708;SDS011;4391;48.678;9.280;2023-04-03T07:23:25;5.03;;;1.77;;
8708;SDS011;4391;48.678;9.280;2023-04-03T07:25:52;3.80;;;1.75;;
8708;SDS011;4391;48.678;9.280;2023-04-03T07:28:21;4.17;;;1.50;;
8708;SDS011;4391;48.678;9.280;2023-04-03T07:30:51;4.20;;;1.75;;
8708;SDS011;4391;48.678;9.280;2023-04-03T07:33:22;5.82;;;1.77;;
8708;SDS011;4391;48.678;9.280;2023-04-03T07:35:49;5.85;;;1.70;;
8708;SDS011;4391;48.678;9.280;2023-04-03T07:38:16;4.78;;;1.52;;
8708;SDS011;4391;48.678;9.280;2023-04-03T07:40:45;5.63;;;1.63;;
8708;SDS011;4391;48.678;9.280;2023-04-03T07:43:12;4.38;;;1.65;;
8708;SDS011;4391;48.678;9.280;2023-04-03T07:45:39;4.30;;;1.50;;
8708;SDS011;4391;48.678;9.280;2023-04-03T07:48:06;5.20;;;1.60;;
8708;SDS011;4391;48.678;9.280;2023-04-03T07:50:35;6.43;;;1.42;;
8708;SDS011;4391;48.678;9.280;2023-04-03T07:53:02;6.73;;;1.60;;
8708;SDS011;4391;48.678;9.280;2023-04-03T07:55:28;3.72;;;1.42;;
8708;SDS011;4391;48.678;9.280;2023-04-03T07:57:55;8.27;;;1.73;;
8708;SDS011;4391;48.678;9.280;2023-04-03T08:00:22;5.35;;;1.60;;
8708;SDS011;4391;48.678;9.280;2023-04-03T08:02:49;3.70;;;1.45;;
8708;SDS011;4391;48.678;9.280;2023-04-03T08:05:17;4.83;;;1.97;;
8708;SDS011;4391;48.678;9.280;2023-04-03T08:07:45;5.30;;;1.80;;
8708;SDS011;4391;48.678;9.280;2023-04-03T08:10:13;5.07;;;1.90;;
8708;SDS011;4391;48.678;9.280;2023-04-03T08:12:41;4.60;;;1.70;;
8708;SDS011;4391;48.678;9.280;2023-04-03T08:15:08;4.00;;;1.90;;
8708;SDS011;4391;48.678;9.280;2023-04-03T08:17:35;6.70;;;1.77;;
8708;SDS011;4391;48.678;9.280;2023-04-03T08:20:03;4.03;;;1.70;;
8708;SDS011;4391;48.678;9.280;2023-04-03T08:22:32;6.03;;;1.95;;
8708;SDS011;4391;48.678;9.280;2023-04-03T08:25:00;5.47;;;1.92;;
8708;SDS011;4391;48.678;9.280;2023-04-03T08:27:27;5.78;;;1.60;;
8708;SDS011;4391;48.678;9.280;2023-04-03T08:29:54;4.50;;;1.73;;
8708;SDS011;4391;48.678;9.280;2023-04-03T08:32:21;5.20;;;1.92;;
8708;SDS011;4391;48.678;9.280;2023-04-03T08:34:49;6.18;;;1.70;;
8708;SDS011;4391;48.678;9.280;2023-04-03T08:37:16;3.75;;;1.50;;
8708;SDS011;4391;48.678;9.280;2023-04-03T08:39:42;6.38;;;1.67;;
8708;SDS011;4391;48.678;9.280;2023-04-03T08:42:14;5.80;;;1.53;;
8708;SDS011;4391;48.678;9.280;2023-04-03T08:44:46;5.28;;;1.95;;
8708;SDS011;4391;48.678;9.280;2023-04-03T08:47:22;4.55;;;1.50;;
8708;SDS011;4391;48.678;9.280;2023-04-03T08:49:53;4.43;;;1.88;;
8708;SDS011;4391;48.678;9.280;2023-04-03T08:52:25;5.22;;;1.83;;
8708;SDS011;4391;48.678;9.280;2023-04-03T08:54:58;3.93;;;1.63;;
8708;SDS011;4391;48.678;9.280;2023-04-03T08:57:30;6.93;;;1.80;;
8708;SDS011;4391;48.678;9.280;2023-04-03T09:00:00;4.40;;;1.60;;
8708;SDS011;4391;48.678;9.280;2023-04-03T09:02:31;4.82;;;1.70;;
8708;SDS011;4391;48.678;9.280;2023-04-03T09:05:01;4.32;;;1.80;;
8708;SDS011;4391;48.678;9.280;2023-04-03T09:07:33;3.63;;;1.50;;
8708;SDS011;4391;48.678;9.280;2023-04-03T09:10:05;5.63;;;1.70;;
8708;SDS011;4391;48.678;9.280;2023-04-03T09:12:36;7.50;;;1.70;;
8708;SDS011;4391;48.678;9.280;2023-04-03T09:15:08;5.30;;;1.80;;
8708;SDS011;4391;48.678;9.280;2023-04-03T09:17:41;5.75;;;1.70;;
8708;SDS011;4391;48.678;9.280;2023-04-03T09:20:19;4.67;;;1.80;;
8708;SDS011;4391;48.678;9.280;2023-04-03T09:22:51;4.43;;;1.73;;
8708;SDS011;4391;48.678;9.280;2023-04-03T09:25:20;6.57;;;1.88;;
8708;SDS011;4391;48.678;9.280;2023-04-03T09:27:50;5.78;;;1.80;;
8708;SDS011;4391;48.678;9.280;2023-04-03T09:30:19;5.43;;;1.70;;
8708;SDS011;4391;48.678;9.280;2023-04-03T09:32:49;4.60;;;1.53;;
8708;SDS011;4391;48.678;9.280;2023-04-03T09:35:19;4.70;;;1.77;;
8708;SDS011;4391;48.678;9.280;2023-04-03T09:37:49;4.75;;;1.45;;
8708;SDS011;4391;48.678;9.280;2023-04-03T09:40:28;4.05;;;1.65;;
8708;SDS011;4391;48.678;9.280;2023-04-03T09:43:02;4.22;;;1.60;;
8708;SDS011;4391;48.678;9.280;2023-04-03T09:45:48;4.57;;;1.80;;
8708;SDS011;4391;48.678;9.280;2023-04-03T09:48:17;5.13;;;1.60;;
8708;SDS011;4391;48.678;9.280;2023-04-03T09:50:53;4.85;;;1.65;;
8708;SDS011;4391;48.678;9.280;2023-04-03T09:53:27;2.85;;;1.23;;
8708;SDS011;4391;48.678;9.280;2023-04-03T09:55:56;4.60;;;1.58;;
8708;SDS011;4391;48.678;9.280;2023-04-03T09:58:26;4.23;;;1.53;;
8708;SDS011;4391;48.678;9.280;2023-04-03T10:00:56;3.83;;;1.40;;
8708;SDS011;4391;48.678;9.280;2023-04-03T10:03:24;4.68;;;1.40;;
8708;SDS011;4391;48.678;9.280;2023-04-03T10:05:54;3.60;;;1.30;;
8708;SDS011;4391;48.678;9.280;2023-04-03T10:08:24;4.43;;;1.40;;
8708;SDS011;4391;48.678;9.280;2023-04-03T10:11:06;3.03;;;1.40;;
8708;SDS011;4391;48.678;9.280;2023-04-03T10:13:37;3.58;;;1.60;;
8708;SDS011;4391;48.678;9.280;2023-04-03T10:16:17;5.30;;;1.30;;
8708;SDS011;4391;48.678;9.280;2023-04-03T10:18:46;3.80;;;1.23;;
8708;SDS011;4391;48.678;9.280;2023-04-03T10:21:20;4.05;;;1.20;;
8708;SDS011;4391;48.678;9.280;2023-04-03T10:23:59;3.80;;;1.10;;
8708;SDS011;4391;48.678;9.280;2023-04-03T10:26:36;3.40;;;1.13;;
8708;SDS011;4391;48.678;9.280;2023-04-03T10:29:16;2.53;;;1.02;;
8708;SDS011;4391;48.678;9.280;2023-04-03T10:32:02;4.93;;;1.40;;
8708;SDS011;4391;48.678;9.280;2023-04-03T10:34:43;3.75;;;1.38;;
8708;SDS011;4391;48.678;9.280;2023-04-03T10:37:13;4.67;;;1.40;;
8708;SDS011;4391;48.678;9.280;2023-04-03T10:39:46;3.50;;;1.30;;
8708;SDS011;4391;48.678;9.280;2023-04-03T10:42:22;3.97;;;1.30;;
8708;SDS011;4391;48.678;9.280;2023-04-03T10:45:00;3.97;;;1.30;;
8708;SDS011;4391;48.678;9.280;2023-04-03T10:47:36;7.07;;;1.75;;
8708;SDS011;4391;48.678;9.280;2023-04-03T10:50:13;3.47;;;1.50;;
8708;SDS011;4391;48.678;9.280;2023-04-03T10:52:52;3.08;;;1.40;;
8708;SDS011;4391;48.678;9.280;2023-04-03T10:55:29;4.47;;;1.63;;
8708;SDS011;4391;48.678;9.280;2023-04-03T10:58:03;3.85;;;1.30;;
8708;SDS011;4391;48.678;9.280;2023-04-03T11:00:35;6.00;;;1.40;;
8708;SDS011;4391;48.678;9.280;2023-04-03T11:03:06;3.97;;;1.70;;
8708;SDS011;4391;48.678;9.280;2023-04-03T11:05:40;4.38;;;1.58;;
8708;SDS011;4391;48.678;9.280;2023-04-03T11:08:11;5.20;;;1.55;;
8708;SDS011;4391;48.678;9.280;2023-04-03T11:10:45;5.55;;;1.70;;
8708;SDS011;4391;48.678;9.280;2023-04-03T11:13:15;4.35;;;1.40;;
8708;SDS011;4391;48.678;9.280;2023-04-03T11:15:47;5.27;;;1.80;;
8708;SDS011;4391;48.678;9.280;2023-04-03T11:18:15;3.55;;;1.50;;
8708;SDS011;4391;48.678;9.280;2023-04-03T11:20:48;6.43;;;1.63;;
8708;SDS011;4391;48.678;9.280;2023-04-03T11:23:24;4.63;;;1.20;;
8708;SDS011;4391;48.678;9.280;2023-04-03T11:25:53;3.67;;;1.25;;
8708;SDS011;4391;48.678;9.280;2023-04-03T11:28:24;5.20;;;1.40;;
8708;SDS011;4391;48.678;9.280;2023-04-03T11:30:53;3.70;;;1.60;;
8708;SDS011;4391;48.678;9.280;2023-04-03T11:33:30;4.75;;;1.35;;
8708;SDS011;4391;48.678;9.280;2023-04-03T11:36:04;3.00;;;1.10;;
8708;SDS011;4391;48.678;9.280;2023-04-03T11:38:36;3.35;;;1.20;;
8708;SDS011;4391;48.678;9.280;2023-04-03T11:41:06;2.97;;;1.10;;
8708;SDS011;4391;48.678;9.280;2023-04-03T11:43:39;5.53;;;1.30;;
8708;SDS011;4391;48.678;9.280;2023-04-03T11:46:08;3.33;;;1.08;;
8708;SDS011;4391;48.678;9.280;2023-04-03T11:48:43;2.70;;;1.10;;
8708;SDS011;4391;48.678;9.280;2023-04-03T12:09:25;3.50;;;0.90;;
8708;SDS011;4391;48.678;9.280;2023-04-03T12:12:01;4.38;;;1.20;;
8708;SDS011;4391;48.678;9.280;2023-04-03T12:14:50;5.47;;;1.40;;
8708;SDS011;4391;48.678;9.280;2023-04-03T12:17:20;5.50;;;1.35;;
8708;SDS011;4391;48.678;9.280;2023-04-03T12:19:50;2.97;;;1.20;;
8708;SDS011;4391;48.678;9.280;2023-04-03T12:22:20;4.97;;;1.23;;
8708;SDS011;4391;48.678;9.280;2023-04-03T12:24:50;5.43;;;1.00;;
8708;SDS011;4391;48.678;9.280;2023-04-03T12:27:20;4.45;;;1.10;;
8708;SDS011;4391;48.678;9.280;2023-04-03T12:29:51;5.00;;;1.40;;
8708;SDS011;4391;48.678;9.280;2023-04-03T12:32:29;5.20;;;1.40;;
8708;SDS011;4391;48.678;9.280;2023-04-03T12:35:17;5.33;;;1.70;;
8708;SDS011;4391;48.678;9.280;2023-04-03T12:38:11;5.53;;;1.60;;
8708;SDS011;4391;48.678;9.280;2023-04-03T12:41:19;5.70;;;1.50;;
8708;SDS011;4391;48.678;9.280;2023-04-03T12:44:00;4.78;;;1.30;;
8708;SDS011;4391;48.678;9.280;2023-04-03T12:46:36;5.53;;;1.40;;
8708;SDS011;4391;48.678;9.280;2023-04-03T12:49:12;5.73;;;1.37;;
8708;SDS011;4391;48.678;9.280;2023-04-03T12:51:49;4.75;;;1.38;;
8708;SDS011;4391;48.678;9.280;2023-04-03T12:54:16;4.45;;;1.30;;
8708;SDS011;4391;48.678;9.280;2023-04-03T12:56:48;3.50;;;1.10;;
8708;SDS011;4391;48.678;9.280;2023-04-03T12:59:16;3.72;;;1.23;;
8708;SDS011;4391;48.678;9.280;2023-04-03T13:01:52;7.80;;;1.30;;
8708;SDS011;4391;48.678;9.280;2023-04-03T13:04:20;4.10;;;1.00;;
8708;SDS011;4391;48.678;9.280;2023-04-03T13:06:47;4.07;;;1.35;;
8708;SDS011;4391;48.678;9.280;2023-04-03T13:09:18;5.05;;;1.38;;
8708;SDS011;4391;48.678;9.280;2023-04-03T13:11:49;5.60;;;1.42;;
8708;SDS011;4391;48.678;9.280;2023-04-03T13:14:18;4.53;;;1.47;;
8708;SDS011;4391;48.678;9.280;2023-04-03T13:16:56;3.35;;;1.10;;
8708;SDS011;4391;48.678;9.280;2023-04-03T13:19:24;4.57;;;1.73;;
8708;SDS011;4391;48.678;9.280;2023-04-03T13:21:53;3.17;;;1.30;;
8708;SDS011;4391;48.678;9.280;2023-04-03T13:24:25;4.22;;;1.30;;
8708;SDS011;4391;48.678;9.280;2023-04-03T13:26:53;3.40;;;1.03;;
8708;SDS011;4391;48.678;9.280;2023-04-03T13:29:22;4.82;;;1.40;;
8708;SDS011;4391;48.678;9.280;2023-04-03T13:31:52;5.15;;;1.60;;
8708;SDS011;4391;48.678;9.280;2023-04-03T13:34:21;4.35;;;1.45;;
8708;SDS011;4391;48.678;9.280;2023-04-03T13:36:55;3.22;;;1.20;;
8708;SDS011;4391;48.678;9.280;2023-04-03T13:39:23;4.97;;;1.57;;
8708;SDS011;4391;48.678;9.280;2023-04-03T13:41:55;4.88;;;1.40;;
8708;SDS011;4391;48.678;9.280;2023-04-03T13:44:27;3.63;;;1.23;;
8708;SDS011;4391;48.678;9.280;2023-04-03T13:46:57;3.58;;;1.20;;
8708;SDS011;4391;48.678;9.280;2023-04-03T13:49:30;4.68;;;1.60;;
8708;SDS011;4391;48.678;9.280;2023-04-03T13:51:59;4.83;;;1.40;;
8708;SDS011;4391;48.678;9.280;2023-04-03T13:54:30;2.88;;;1.17;;
8708;SDS011;4391;48.678;9.280;2023-04-03T13:57:02;4.68;;;1.30;;
8708;SDS011;4391;48.678;9.280;2023-04-03T13:59:37;3.80;;;1.30;;
8708;SDS011;4391;48.678;9.280;2023-04-03T14:02:12;4.57;;;1.50;;
8708;SDS011;4391;48.678;9.280;2023-04-03T14:04:48;6.07;;;1.40;;
8708;SDS011;4391;48.678;9.280;2023-04-03T14:07:23;6.05;;;1.60;;
8708;SDS011;4391;48.678;9.280;2023-04-03T14:09:51;4.10;;;1.33;;
8708;SDS011;4391;48.678;9.280;2023-04-03T14:12:21;4.00;;;1.30;;
8708;SDS011;4391;48.678;9.280;2023-04-03T14:14:53;4.80;;;1.48;;
8708;SDS011;4391;48.678;9.280;2023-04-03T14:17:22;3.03;;;1.23;;
8708;SDS011;4391;48.678;9.280;2023-04-03T14:19:51;5.07;;;1.40;;
8708;SDS011;4391;48.678;9.280;2023-04-03T14:22:20;3.75;;;1.30;;
8708;SDS011;4391;48.678;9.280;2023-04-03T14:24:48;5.07;;;1.40;;
8708;SDS011;4391;48.678;9.280;2023-04-03T14:27:17;5.20;;;1.60;;
8708;SDS011;4391;48.678;9.280;2023-04-03T14:29:47;4.03;;;1.30;;
8708;SDS011;4391;48.678;9.280;2023-04-03T14:32:16;4.35;;;1.40;;
8708;SDS011;4391;48.678;9.280;2023-04-03T14:34:44;4.85;;;1.52;;
8708;SDS011;4391;48.678;9.280;2023-04-03T14:37:12;6.35;;;1.30;;
8708;SDS011;4391;48.678;9.280;2023-04-03T14:39:41;4.75;;;1.60;;
8708;SDS011;4391;48.678;9.280;2023-04-03T14:42:11;4.63;;;1.30;;
8708;SDS011;4391;48.678;9.280;2023-04-03T14:44:41;3.95;;;1.27;;
8708;SDS011;4391;48.678;9.280;2023-04-03T14:47:09;4.68;;;1.75;;
8708;SDS011;4391;48.678;9.280;2023-04-03T14:49:38;4.90;;;1.35;;
8708;SDS011;4391;48.678;9.280;2023-04-03T14:52:05;4.55;;;1.38;;
8708;SDS011;4391;48.678;9.280;2023-04-03T14:54:31;3.20;;;1.10;;
8708;SDS011;4391;48.678;9.280;2023-04-03T14:56:59;4.32;;;1.42;;
8708;SDS011;4391;48.678;9.280;2023-04-03T14:59:27;4.03;;;1.40;;
8708;SDS011;4391;48.678;9.280;2023-04-03T15:01:56;3.50;;;1.40;;
8708;SDS011;4391;48.678;9.280;2023-04-03T15:04:23;4.50;;;1.60;;
8708;SDS011;4391;48.678;9.280;2023-04-03T15:06:50;4.17;;;1.77;;
8708;SDS011;4391;48.678;9.280;2023-04-03T15:09:19;7.45;;;2.28;;
8708;SDS011;4391;48.678;9.280;2023-04-03T15:11:49;5.10;;;1.60;;
8708;SDS011;4391;48.678;9.280;2023-04-03T15:14:16;5.18;;;1.55;;
8708;SDS011;4391;48.678;9.280;2023-04-03T15:16:44;3.95;;;1.58;;
8708;SDS011;4391;48.678;9.280;2023-04-03T15:19:12;4.33;;;1.70;;
8708;SDS011;4391;48.678;9.280;2023-04-03T15:21:39;3.90;;;1.60;;
8708;SDS011;4391;48.678;9.280;2023-04-03T15:24:06;4.72;;;1.63;;
8708;SDS011;4391;48.678;9.280;2023-04-03T15:26:35;4.18;;;1.30;;
8708;SDS011;4391;48.678;9.280;2023-04-03T15:29:02;4.43;;;1.70;;
8708;SDS011;4391;48.678;9.280;2023-04-03T15:31:29;5.37;;;1.47;;
8708;SDS011;4391;48.678;9.280;2023-04-03T15:33:58;4.72;;;1.17;;
8708;SDS011;4391;48.678;9.280;2023-04-03T15:36:27;3.65;;;1.52;;
8708;SDS011;4391;48.678;9.280;2023-04-03T15:38:54;5.03;;;1.50;;
8708;SDS011;4391;48.678;9.280;2023-04-03T15:41:21;5.45;;;1.80;;
8708;SDS011;4391;48.678;9.280;2023-04-03T15:43:47;4.63;;;1.63;;
8708;SDS011;4391;48.678;9.280;2023-04-03T15:46:14;8.77;;;2.10;;
8708;SDS011;4391;48.678;9.280;2023-04-03T15:48:41;4.30;;;1.70;;
8708;SDS011;4391;48.678;9.280;2023-04-03T15:51:09;3.97;;;1.70;;
8708;SDS011;4391;48.678;9.280;2023-04-03T15:53:38;4.93;;;1.60;;